Venezia / Tessera - Marco Polo Airport LIPZ

Flugplatz Daten

Name: Venezia / Tessera - Marco Polo Airport

Ident: LIPZ

Lat: 45,50529861

Long: 12,3519001

Platzhöhe: 7 ft

IataCode: VCE

City: Venezia

Homepage: http://www.veniceairport.com/core/index.jsp?_requestid=37300&language=en

Metar

2022/08/13 18:20
LIPZ 131820Z VRB02KT CAVOK 24/14 Q1012 NOSIG

Taf

2022/08/13 18:00
TAF LIPZ 131700Z 1318/1424 10010KT CAVOK
BECMG 1320/1322 VRB05KT
BECMG 1410/1412 16010KT
BECMG 1421/1423 04007KT
Gewünschte Webcam nicht vorhanden? Dann fügen Sie eine hinzu. Sie wird dann so schnell wie möglich freigeschaltet
Url: Title: